createdAt,value
2023-03-07T00:00:16.502Z,18.53
2023-03-07T00:02:45.848Z,16.10
2023-03-07T00:05:15.284Z,16.60
2023-03-07T00:07:43.628Z,15.60
2023-03-07T00:10:13.457Z,16.47
2023-03-07T00:12:43.168Z,14.70
2023-03-07T00:15:12.477Z,15.57
2023-03-07T00:17:41.270Z,19.23
2023-03-07T00:20:14.928Z,18.70
2023-03-07T00:22:44.482Z,15.03
2023-03-07T00:25:12.898Z,15.53
2023-03-07T00:27:42.133Z,16.47
2023-03-07T00:30:13.470Z,17.47
2023-03-07T00:32:41.828Z,19.83
2023-03-07T00:35:11.234Z,17.27
2023-03-07T00:37:41.032Z,16.13
2023-03-07T00:40:11.966Z,16.83
2023-03-07T00:42:40.851Z,16.23
2023-03-07T00:45:10.893Z,16.23
2023-03-07T00:47:41.609Z,14.30
2023-03-07T00:50:11.472Z,19.23
2023-03-07T00:52:39.902Z,15.90
2023-03-07T00:55:11.081Z,16.27
2023-03-07T00:57:40.306Z,16.70
2023-03-07T01:00:12.377Z,15.47
2023-03-07T01:02:42.489Z,17.00
2023-03-07T01:05:11.078Z,17.83
2023-03-07T01:07:40.375Z,17.53
2023-03-07T01:10:09.999Z,34.63
2023-03-07T01:12:39.074Z,27.70
2023-03-07T01:15:08.741Z,20.57
2023-03-07T01:17:43.354Z,21.93
2023-03-07T01:20:13.120Z,21.43
2023-03-07T01:22:42.818Z,17.83
2023-03-07T01:25:11.966Z,17.70
2023-03-07T01:27:41.942Z,15.43
2023-03-07T01:30:12.301Z,18.67
2023-03-07T01:32:41.193Z,17.93
2023-03-07T01:35:11.380Z,19.47
2023-03-07T01:37:40.662Z,18.97
2023-03-07T01:40:13.221Z,17.27
2023-03-07T01:42:42.040Z,17.23
2023-03-07T01:45:44.173Z,18.00
2023-03-07T01:48:12.856Z,21.53
2023-03-07T01:50:44.513Z,18.27
2023-03-07T01:53:13.060Z,17.33
2023-03-07T01:55:42.065Z,16.53
2023-03-07T01:58:17.394Z,17.40
2023-03-07T02:00:48.508Z,19.50
2023-03-07T02:03:23.304Z,15.73
2023-03-07T02:05:56.441Z,21.07
2023-03-07T02:08:27.503Z,15.73
2023-03-07T02:10:56.423Z,14.67
2023-03-07T02:13:24.791Z,15.67
2023-03-07T02:15:54.029Z,17.40
2023-03-07T02:18:28.382Z,16.60
2023-03-07T02:21:03.754Z,15.23
2023-03-07T02:23:43.656Z,17.57
2023-03-07T02:26:18.163Z,16.07
2023-03-07T02:28:49.701Z,14.77
2023-03-07T02:31:19.905Z,17.33
2023-03-07T02:33:49.710Z,15.13
2023-03-07T02:36:24.859Z,15.63
2023-03-07T02:39:06.811Z,16.33
2023-03-07T02:41:39.641Z,16.93
2023-03-07T02:44:23.782Z,15.00
2023-03-07T02:46:52.506Z,15.07
2023-03-07T02:49:24.110Z,16.70
2023-03-07T02:51:58.063Z,15.90
2023-03-07T02:54:26.461Z,17.83
2023-03-07T02:56:55.723Z,16.03
2023-03-07T02:59:25.524Z,15.27
2023-03-07T03:01:55.163Z,15.37
2023-03-07T03:04:23.802Z,17.00
2023-03-07T03:06:53.235Z,15.33
2023-03-07T03:09:21.709Z,16.60
2023-03-07T03:11:51.064Z,16.77
2023-03-07T03:14:22.500Z,15.70
2023-03-07T03:16:54.894Z,14.03
2023-03-07T03:19:23.862Z,18.83
2023-03-07T03:21:52.269Z,17.77
2023-03-07T03:24:21.739Z,18.10
2023-03-07T03:26:50.922Z,16.00
2023-03-07T03:29:23.230Z,18.80
2023-03-07T03:31:52.224Z,18.80
2023-03-07T03:34:23.187Z,16.47
2023-03-07T03:36:53.350Z,17.90
2023-03-07T03:39:22.847Z,16.87
2023-03-07T03:41:57.044Z,16.60
2023-03-07T03:44:25.874Z,17.13
2023-03-07T03:46:56.188Z,18.77
2023-03-07T03:49:27.326Z,16.90
2023-03-07T03:51:56.678Z,16.83
2023-03-07T03:54:25.534Z,16.07
2023-03-07T03:56:54.900Z,15.97
2023-03-07T03:59:23.632Z,17.67
2023-03-07T04:01:55.559Z,18.33
2023-03-07T04:04:23.933Z,18.03
2023-03-07T04:07:12.434Z,15.47
2023-03-07T04:09:41.389Z,17.17
2023-03-07T04:12:10.176Z,18.17
2023-03-07T04:14:39.162Z,25.47
2023-03-07T04:17:07.941Z,16.27
2023-03-07T04:19:36.342Z,19.93
2023-03-07T04:22:05.137Z,17.67
2023-03-07T04:24:37.246Z,19.10
2023-03-07T04:27:06.463Z,20.83
2023-03-07T04:29:37.614Z,18.83
2023-03-07T04:32:15.112Z,17.67
2023-03-07T04:34:44.243Z,20.27
2023-03-07T04:37:13.260Z,15.77
2023-03-07T04:39:42.926Z,18.53
2023-03-07T04:42:12.762Z,15.43
2023-03-07T04:44:41.107Z,18.90
2023-03-07T04:47:10.436Z,21.73
2023-03-07T04:49:39.811Z,23.27
2023-03-07T04:52:10.146Z,20.63
2023-03-07T04:54:38.686Z,16.77
2023-03-07T04:57:09.389Z,18.53
2023-03-07T04:59:39.538Z,17.00
2023-03-07T05:02:12.945Z,16.90
2023-03-07T05:04:42.454Z,17.07
2023-03-07T05:07:12.541Z,19.87
2023-03-07T05:09:41.334Z,18.30
2023-03-07T05:12:11.823Z,18.03
2023-03-07T05:14:40.655Z,15.87
2023-03-07T05:17:09.578Z,17.27
2023-03-07T05:19:38.559Z,20.03
2023-03-07T05:22:07.599Z,15.40
2023-03-07T05:24:36.656Z,19.67
2023-03-07T05:27:07.099Z,17.67
2023-03-07T05:29:36.786Z,17.13
2023-03-07T05:32:06.657Z,18.97
2023-03-07T05:34:35.220Z,16.17
2023-03-07T05:37:03.761Z,17.97
2023-03-07T05:39:32.193Z,17.80
2023-03-07T05:42:00.869Z,17.80
2023-03-07T05:44:31.280Z,20.37
2023-03-07T05:47:02.455Z,19.03
2023-03-07T05:49:32.044Z,16.43
2023-03-07T05:52:00.533Z,16.83
2023-03-07T05:54:29.352Z,16.63
2023-03-07T05:56:58.064Z,18.33
2023-03-07T05:59:27.518Z,16.57
2023-03-07T06:01:56.062Z,16.83
2023-03-07T06:04:27.481Z,16.67
2023-03-07T06:06:55.947Z,15.97
2023-03-07T06:09:25.909Z,15.73
2023-03-07T06:11:56.397Z,18.60
2023-03-07T06:14:26.194Z,17.20
2023-03-07T06:16:54.877Z,18.07
2023-03-07T06:19:23.478Z,17.30
2023-03-07T06:21:55.093Z,20.63
2023-03-07T06:24:24.014Z,16.10
2023-03-07T06:26:53.169Z,15.90
2023-03-07T06:29:24.705Z,16.77
2023-03-07T06:31:53.322Z,17.70
2023-03-07T06:34:22.877Z,16.50
2023-03-07T06:36:52.029Z,16.37
2023-03-07T06:39:22.770Z,14.93
2023-03-07T06:41:54.624Z,17.10
2023-03-07T06:44:24.976Z,14.67
2023-03-07T06:46:53.784Z,19.73
2023-03-07T06:49:24.730Z,16.67
2023-03-07T06:51:53.450Z,15.93
2023-03-07T06:54:24.487Z,17.10
2023-03-07T06:56:53.274Z,14.30
2023-03-07T06:59:24.517Z,15.07
2023-03-07T07:01:53.089Z,18.63
2023-03-07T07:04:23.434Z,16.87
2023-03-07T07:06:53.354Z,14.60
2023-03-07T07:09:21.868Z,17.77
2023-03-07T07:11:52.170Z,16.93
2023-03-07T07:14:21.965Z,16.97
2023-03-07T07:16:51.227Z,16.97
2023-03-07T07:19:20.469Z,14.50
2023-03-07T07:21:49.628Z,18.57
2023-03-07T07:24:18.813Z,15.47
2023-03-07T07:26:47.872Z,17.27
2023-03-07T07:29:17.684Z,14.47
2023-03-07T07:31:49.637Z,15.00
2023-03-07T07:34:20.414Z,16.30
2023-03-07T07:36:49.380Z,19.57
2023-03-07T07:39:18.692Z,18.37
2023-03-07T07:41:48.870Z,14.43
2023-03-07T07:44:20.270Z,16.27
2023-03-07T07:46:56.135Z,14.20
2023-03-07T07:49:24.779Z,14.33
2023-03-07T07:51:53.643Z,13.67
2023-03-07T07:54:22.176Z,15.00
2023-03-07T07:56:51.805Z,15.30
2023-03-07T07:59:22.874Z,14.87
2023-03-07T08:01:52.315Z,14.67
2023-03-07T08:04:21.308Z,15.30
2023-03-07T08:06:50.405Z,15.33
2023-03-07T08:09:19.351Z,17.50
2023-03-07T08:11:48.480Z,14.80
2023-03-07T08:14:16.846Z,14.23
2023-03-07T08:16:46.929Z,14.97
2023-03-07T08:19:15.266Z,15.67
2023-03-07T08:21:43.957Z,13.67
2023-03-07T08:24:12.398Z,13.87
2023-03-07T08:26:41.681Z,14.93
2023-03-07T08:29:10.192Z,16.00
2023-03-07T08:31:39.410Z,13.70
2023-03-07T08:34:09.120Z,13.43
2023-03-07T08:36:38.502Z,14.03
2023-03-07T08:39:07.723Z,13.50
2023-03-07T08:41:36.963Z,13.13
2023-03-07T08:44:05.894Z,13.67
2023-03-07T08:46:34.228Z,16.60
2023-03-07T08:49:03.627Z,16.70
2023-03-07T08:51:33.298Z,11.77
2023-03-07T08:54:02.121Z,13.43
2023-03-07T08:56:31.271Z,14.10
2023-03-07T08:58:59.654Z,16.00
2023-03-07T09:01:28.788Z,13.67
2023-03-07T09:03:57.154Z,13.47
2023-03-07T09:06:27.105Z,13.37
2023-03-07T09:08:56.790Z,12.23
2023-03-07T09:11:26.980Z,17.10
2023-03-07T09:13:55.318Z,14.70
2023-03-07T09:16:25.724Z,12.33
2023-03-07T09:18:54.050Z,11.97
2023-03-07T09:21:23.852Z,13.63
2023-03-07T09:23:52.185Z,13.20
2023-03-07T09:26:23.473Z,11.87
2023-03-07T09:28:52.266Z,14.80
2023-03-07T09:31:21.078Z,12.43
2023-03-07T09:33:50.171Z,11.23
2023-03-07T09:36:20.734Z,13.67
2023-03-07T09:38:49.541Z,11.07
2023-03-07T09:41:40.046Z,20.13
2023-03-07T09:44:19.465Z,13.03
2023-03-07T09:47:25.213Z,12.70
2023-03-07T09:49:56.424Z,13.10
2023-03-07T09:52:28.966Z,12.50
2023-03-07T09:55:00.174Z,10.57
2023-03-07T09:57:33.066Z,10.47
2023-03-07T10:00:06.185Z,11.40
2023-03-07T10:02:47.518Z,11.77
2023-03-07T10:05:29.280Z,13.03
2023-03-07T10:07:59.603Z,7.90
2023-03-07T10:10:35.775Z,9.30
2023-03-07T10:13:21.406Z,7.27
2023-03-07T10:15:55.111Z,6.70
2023-03-07T10:18:45.850Z,8.37
2023-03-07T10:21:24.254Z,8.30
2023-03-07T10:24:24.656Z,10.43
2023-03-07T10:27:00.604Z,8.30
2023-03-07T10:29:39.290Z,11.67
2023-03-07T10:32:19.903Z,9.10
2023-03-07T10:34:50.526Z,9.10
2023-03-07T10:37:20.524Z,8.70
2023-03-07T10:39:53.409Z,9.27
2023-03-07T10:42:23.899Z,9.57
2023-03-07T10:44:54.249Z,7.77
2023-03-07T10:47:25.668Z,7.10
2023-03-07T10:49:58.977Z,9.07
2023-03-07T10:52:34.986Z,8.43
2023-03-07T10:55:32.792Z,8.03
2023-03-07T10:58:21.291Z,8.67
2023-03-07T11:01:02.500Z,7.60
2023-03-07T11:03:51.370Z,5.95
2023-03-07T11:06:30.154Z,7.82
2023-03-07T11:09:10.414Z,7.93
2023-03-07T11:11:39.548Z,9.30
2023-03-07T11:14:09.119Z,9.10
2023-03-07T11:16:44.791Z,8.32
2023-03-07T11:19:31.895Z,8.32
2023-03-07T11:22:04.828Z,7.72
2023-03-07T11:24:38.425Z,8.98
2023-03-07T11:27:09.051Z,6.45
2023-03-07T11:29:37.849Z,9.82
2023-03-07T11:32:15.006Z,8.07
2023-03-07T11:34:51.800Z,7.95
2023-03-07T11:37:28.867Z,7.88
2023-03-07T11:40:13.386Z,8.43
2023-03-07T11:42:48.571Z,8.13
2023-03-07T11:45:32.541Z,8.95
2023-03-07T11:48:14.289Z,10.60
2023-03-07T11:50:51.435Z,9.57
2023-03-07T11:53:54.333Z,8.98
2023-03-07T11:56:28.101Z,10.32
2023-03-07T11:59:38.984Z,12.15
2023-03-07T12:02:24.186Z,13.68
2023-03-07T12:05:13.580Z,13.43
2023-03-07T12:07:59.986Z,13.55
2023-03-07T12:10:35.646Z,13.70
2023-03-07T12:13:15.906Z,13.95
2023-03-07T12:15:51.531Z,12.10
2023-03-07T12:18:33.650Z,13.23
2023-03-07T12:21:20.947Z,10.32
2023-03-07T12:23:54.879Z,11.40
2023-03-07T12:26:30.438Z,11.77
2023-03-07T12:29:04.320Z,12.15
2023-03-07T12:31:37.751Z,11.93
2023-03-07T12:34:13.599Z,11.10
2023-03-07T12:36:48.465Z,10.90
2023-03-07T12:39:20.900Z,10.45
2023-03-07T12:42:02.984Z,11.88
2023-03-07T12:44:36.882Z,10.48
2023-03-07T12:47:16.300Z,12.70
2023-03-07T12:49:55.469Z,13.13
2023-03-07T12:52:37.981Z,10.55
2023-03-07T12:55:17.874Z,14.43
2023-03-07T12:57:56.997Z,12.68
2023-03-07T13:00:27.212Z,9.48
2023-03-07T13:03:01.695Z,10.93
2023-03-07T13:05:33.227Z,10.55
2023-03-07T13:08:04.297Z,13.93
2023-03-07T13:10:34.422Z,9.85
2023-03-07T13:13:03.281Z,10.25
2023-03-07T13:16:03.970Z,10.93
2023-03-07T13:18:33.781Z,14.35
2023-03-07T13:21:13.185Z,11.88
2023-03-07T13:23:42.964Z,15.00
2023-03-07T13:26:14.466Z,8.60
2023-03-07T13:28:46.460Z,11.18
2023-03-07T13:31:47.483Z,10.70
2023-03-07T13:34:47.418Z,12.60
2023-03-07T13:37:57.820Z,10.82
2023-03-07T13:40:58.823Z,11.45
2023-03-07T13:44:00.536Z,9.27
2023-03-07T13:46:47.949Z,9.85
2023-03-07T13:49:37.344Z,11.15
2023-03-07T13:52:31.486Z,11.52
2023-03-07T13:55:01.510Z,9.52
2023-03-07T13:57:39.122Z,11.68
2023-03-07T14:00:24.602Z,9.70
2023-03-07T14:02:55.376Z,12.25
2023-03-07T14:05:24.065Z,13.13
2023-03-07T14:07:54.684Z,17.77
2023-03-07T14:10:27.869Z,10.60
2023-03-07T14:13:12.686Z,10.55
2023-03-07T14:15:50.184Z,11.30
2023-03-07T14:18:30.132Z,12.43
2023-03-07T14:21:08.204Z,8.48
2023-03-07T14:23:57.220Z,10.95
2023-03-07T14:26:28.546Z,9.45
2023-03-07T14:29:00.266Z,9.57
2023-03-07T14:31:38.006Z,12.30
2023-03-07T14:34:17.355Z,9.38
2023-03-07T14:36:57.077Z,9.32
2023-03-07T14:39:28.234Z,10.68
2023-03-07T14:42:08.482Z,12.93
2023-03-07T14:44:57.636Z,9.98
2023-03-07T14:47:44.140Z,11.77
2023-03-07T14:50:17.333Z,11.57
2023-03-07T14:52:48.621Z,12.13
2023-03-07T14:55:20.393Z,11.73
2023-03-07T14:57:54.320Z,9.80
2023-03-07T15:00:26.326Z,10.40
2023-03-07T15:02:59.085Z,14.48
2023-03-07T15:05:30.516Z,13.15
2023-03-07T15:08:00.211Z,11.70
2023-03-07T15:10:34.125Z,12.50
2023-03-07T15:13:09.276Z,14.25
2023-03-07T15:15:43.396Z,14.18
2023-03-07T15:18:22.504Z,12.15
2023-03-07T15:20:53.318Z,16.08
2023-03-07T15:23:24.896Z,12.27
2023-03-07T15:25:56.753Z,12.57
2023-03-07T15:28:32.206Z,13.63
2023-03-07T15:31:00.711Z,14.18
2023-03-07T15:33:35.309Z,11.63
2023-03-07T15:36:09.749Z,15.48
2023-03-07T15:38:39.954Z,13.07
2023-03-07T15:41:27.612Z,13.70
2023-03-07T15:44:08.472Z,17.02
2023-03-07T15:46:40.069Z,13.80
2023-03-07T15:49:20.404Z,12.93
2023-03-07T15:51:52.852Z,13.52
2023-03-07T15:54:32.313Z,12.27
2023-03-07T15:57:04.782Z,12.30
2023-03-07T15:59:38.736Z,19.15
2023-03-07T16:02:26.403Z,17.33
2023-03-07T16:04:57.512Z,15.73
2023-03-07T16:07:26.010Z,12.75
2023-03-07T16:09:54.399Z,10.45
2023-03-07T16:12:24.771Z,14.52
2023-03-07T16:14:55.252Z,13.30
2023-03-07T16:17:29.131Z,12.45
2023-03-07T16:19:58.956Z,14.68
2023-03-07T16:22:27.268Z,12.55
2023-03-07T16:24:55.598Z,11.18
2023-03-07T16:27:25.514Z,17.75
2023-03-07T16:29:55.036Z,67.88
2023-03-07T16:32:23.836Z,74.15
2023-03-07T16:34:53.430Z,53.40
2023-03-07T16:37:23.534Z,54.70
2023-03-07T16:39:51.862Z,16.52
2023-03-07T16:42:24.131Z,13.45
2023-03-07T16:44:52.813Z,13.52
2023-03-07T16:47:21.562Z,15.27
2023-03-07T16:49:52.167Z,12.05
2023-03-07T16:52:23.531Z,13.35
2023-03-07T16:54:54.191Z,18.60
2023-03-07T16:57:23.905Z,16.05
2023-03-07T16:59:52.302Z,31.67
2023-03-07T17:02:23.104Z,88.55
2023-03-07T17:04:51.430Z,34.75
2023-03-07T17:07:23.912Z,12.10
2023-03-07T17:09:53.757Z,28.85
2023-03-07T17:12:24.927Z,15.80
2023-03-07T17:14:53.528Z,13.43
2023-03-07T17:17:28.987Z,15.23
2023-03-07T17:19:57.354Z,19.10
2023-03-07T17:22:26.162Z,22.27
2023-03-07T17:24:55.810Z,19.48
2023-03-07T17:27:25.140Z,16.43
2023-03-07T17:29:55.179Z,17.53
2023-03-07T17:32:23.710Z,22.90
2023-03-07T17:34:52.801Z,19.83
2023-03-07T17:37:21.771Z,15.53
2023-03-07T17:39:50.521Z,15.43
2023-03-07T17:42:20.656Z,12.60
2023-03-07T17:44:49.028Z,15.03
2023-03-07T17:47:17.662Z,12.90
2023-03-07T17:49:46.896Z,15.70
2023-03-07T17:52:15.289Z,15.37
2023-03-07T17:54:45.876Z,17.27
2023-03-07T17:57:14.237Z,20.90
2023-03-07T17:59:45.261Z,16.23
2023-03-07T18:02:15.494Z,14.90
2023-03-07T18:04:44.228Z,13.07
2023-03-07T18:07:14.213Z,12.57
2023-03-07T18:09:42.574Z,16.80
2023-03-07T18:12:11.549Z,14.97
2023-03-07T18:14:39.998Z,14.00
2023-03-07T18:17:10.112Z,15.93
2023-03-07T18:19:40.059Z,14.10
2023-03-07T18:22:09.119Z,18.30
2023-03-07T18:24:37.544Z,15.63
2023-03-07T18:27:09.329Z,14.63
2023-03-07T18:29:38.662Z,17.63
2023-03-07T18:32:07.387Z,17.13
2023-03-07T18:34:38.088Z,18.33
2023-03-07T18:37:08.179Z,19.60
2023-03-07T18:39:37.296Z,17.10
2023-03-07T18:42:07.145Z,17.00
2023-03-07T18:44:35.558Z,18.47
2023-03-07T18:47:04.868Z,16.13
2023-03-07T18:49:33.356Z,14.67
2023-03-07T18:52:04.797Z,18.13
2023-03-07T18:54:34.288Z,17.20
2023-03-07T18:57:03.242Z,17.90
2023-03-07T18:59:31.551Z,16.30
2023-03-07T19:02:03.420Z,16.60
2023-03-07T19:04:31.800Z,13.17
2023-03-07T19:07:01.125Z,14.63
2023-03-07T19:09:32.587Z,21.13
2023-03-07T19:12:00.905Z,15.77
2023-03-07T19:14:30.257Z,28.47
2023-03-07T19:16:58.925Z,30.23
2023-03-07T19:19:27.297Z,16.30
2023-03-07T19:21:56.372Z,15.33
2023-03-07T19:24:24.752Z,13.47
2023-03-07T19:26:54.920Z,14.07
2023-03-07T19:29:23.233Z,14.90
2023-03-07T19:31:52.069Z,14.10
2023-03-07T19:34:20.386Z,11.10
2023-03-07T19:36:49.122Z,15.27
2023-03-07T19:39:20.478Z,13.00
2023-03-07T19:41:50.140Z,12.40
2023-03-07T19:44:19.805Z,13.03
2023-03-07T19:46:48.882Z,12.07
2023-03-07T19:49:18.529Z,11.97
2023-03-07T19:51:46.836Z,13.50
2023-03-07T19:54:16.382Z,13.30
2023-03-07T19:56:45.619Z,14.80
2023-03-07T19:59:15.462Z,22.70
2023-03-07T20:01:45.285Z,25.93
2023-03-07T20:04:16.022Z,20.87
2023-03-07T20:06:45.497Z,21.80
2023-03-07T20:09:14.395Z,22.73
2023-03-07T20:11:43.872Z,18.93
2023-03-07T20:14:13.328Z,18.47
2023-03-07T20:16:42.065Z,23.00
2023-03-07T20:19:11.880Z,17.93
2023-03-07T20:21:42.892Z,16.97
2023-03-07T20:24:12.776Z,23.67
2023-03-07T20:26:41.796Z,18.27
2023-03-07T20:29:11.342Z,18.97
2023-03-07T20:31:40.794Z,23.83
2023-03-07T20:34:12.316Z,21.83
2023-03-07T20:36:40.772Z,17.17
2023-03-07T20:39:13.144Z,18.70
2023-03-07T20:41:42.336Z,13.83
2023-03-07T20:44:13.242Z,13.00
2023-03-07T20:46:41.954Z,12.73
2023-03-07T20:49:14.241Z,13.27
2023-03-07T20:51:43.635Z,10.60
2023-03-07T20:54:14.412Z,11.23
2023-03-07T20:56:43.642Z,10.57
2023-03-07T20:59:14.368Z,10.70
2023-03-07T21:01:43.195Z,10.67
2023-03-07T21:04:16.043Z,12.10
2023-03-07T21:06:46.280Z,14.30
2023-03-07T21:12:03.105Z,11.40
2023-03-07T21:14:31.982Z,10.53
2023-03-07T21:17:02.578Z,11.37
2023-03-07T21:19:33.226Z,11.87
2023-03-07T21:22:02.768Z,13.77
2023-03-07T21:24:31.139Z,12.03
2023-03-07T21:27:00.677Z,12.23
2023-03-07T21:29:30.092Z,28.20
2023-03-07T21:31:58.515Z,63.23
2023-03-07T21:34:27.887Z,27.07
2023-03-07T21:36:57.559Z,26.77
2023-03-07T21:39:27.752Z,11.80
2023-03-07T21:41:56.096Z,11.37
2023-03-07T21:44:24.903Z,10.23
2023-03-07T21:46:53.256Z,12.80
2023-03-07T21:49:22.635Z,11.43
2023-03-07T21:51:50.934Z,11.87
2023-03-07T21:54:21.389Z,13.40
2023-03-07T21:56:50.090Z,12.47
2023-03-07T21:59:18.428Z,13.67
2023-03-07T22:01:47.023Z,12.43
2023-03-07T22:04:15.965Z,11.27
2023-03-07T22:06:44.460Z,13.60
2023-03-07T22:09:13.782Z,10.70
2023-03-07T22:11:43.465Z,12.43
2023-03-07T22:14:12.214Z,11.87
2023-03-07T22:16:40.951Z,12.20
2023-03-07T22:19:09.814Z,14.03
2023-03-07T22:21:38.694Z,13.43
2023-03-07T22:24:07.105Z,13.53
2023-03-07T22:26:36.316Z,16.63
2023-03-07T22:29:06.244Z,13.83
2023-03-07T22:31:35.716Z,13.87
2023-03-07T22:34:04.073Z,15.80
2023-03-07T22:36:33.809Z,13.17
2023-03-07T22:39:02.192Z,13.43
2023-03-07T22:41:31.073Z,15.77
2023-03-07T22:43:59.434Z,12.53
2023-03-07T22:46:30.023Z,13.50
2023-03-07T22:48:58.826Z,13.83
2023-03-07T22:51:27.657Z,11.70
2023-03-07T22:53:56.815Z,15.57
2023-03-07T22:56:27.230Z,13.07
2023-03-07T22:58:55.994Z,15.27
2023-03-07T23:01:27.094Z,14.83
2023-03-07T23:03:58.718Z,16.67
2023-03-07T23:06:29.500Z,16.63
2023-03-07T23:09:00.954Z,18.83
2023-03-07T23:11:31.677Z,17.13
2023-03-07T23:14:01.208Z,12.77
2023-03-07T23:16:31.543Z,10.87
2023-03-07T23:19:02.118Z,13.37
2023-03-07T23:21:32.781Z,14.77
2023-03-07T23:24:04.498Z,14.60
2023-03-07T23:26:35.948Z,14.77
2023-03-07T23:29:05.882Z,13.23
2023-03-07T23:31:38.774Z,12.60
2023-03-07T23:34:13.428Z,13.77
2023-03-07T23:36:43.388Z,15.73
2023-03-07T23:39:12.224Z,11.10
2023-03-07T23:41:42.146Z,12.87
2023-03-07T23:44:12.051Z,12.43
2023-03-07T23:46:40.404Z,17.63
2023-03-07T23:49:11.271Z,12.13
2023-03-07T23:51:39.801Z,15.50
2023-03-07T23:54:09.302Z,15.23
2023-03-07T23:56:37.596Z,13.07
2023-03-07T23:59:07.047Z,14.07
